createdAt,value
2022-12-08T00:02:03.743Z,11.67
2022-12-08T00:04:52.329Z,11.80
2022-12-08T00:07:39.818Z,14.57
2022-12-08T00:10:46.593Z,14.63
2022-12-08T00:12:58.715Z,14.47
2022-12-08T00:15:27.192Z,15.93
2022-12-08T00:17:55.515Z,14.23
2022-12-08T00:20:24.102Z,14.30
2022-12-08T00:22:53.771Z,12.60
2022-12-08T00:25:22.424Z,11.97
2022-12-08T00:27:51.051Z,13.00
2022-12-08T00:30:19.623Z,12.13
2022-12-08T00:32:48.244Z,12.13
2022-12-08T00:35:16.810Z,11.37
2022-12-08T00:37:45.154Z,11.63
2022-12-08T00:40:15.141Z,11.67
2022-12-08T00:42:43.530Z,11.30
2022-12-08T00:45:13.237Z,10.67
2022-12-08T00:47:41.661Z,11.70
2022-12-08T00:50:10.874Z,14.93
2022-12-08T00:52:39.628Z,14.27
2022-12-08T00:55:08.891Z,13.77
2022-12-08T00:57:38.589Z,14.80
2022-12-08T01:00:09.100Z,12.90
2022-12-08T01:02:37.429Z,11.67
2022-12-08T01:05:06.545Z,13.00
2022-12-08T01:07:35.007Z,14.73
2022-12-08T01:10:05.071Z,15.10
2022-12-08T01:12:33.914Z,16.60
2022-12-08T01:15:03.603Z,17.03
2022-12-08T01:17:32.244Z,16.50
2022-12-08T01:20:02.155Z,16.60
2022-12-08T01:22:31.028Z,15.47
2022-12-08T01:24:59.779Z,15.20
2022-12-08T01:27:28.065Z,14.73
2022-12-08T01:29:56.454Z,14.03
2022-12-08T01:32:26.120Z,13.67
2022-12-08T01:34:54.769Z,12.93
2022-12-08T01:37:23.110Z,11.47
2022-12-08T01:39:51.428Z,12.30
2022-12-08T01:42:24.752Z,12.10
2022-12-08T01:45:02.709Z,11.83
2022-12-08T01:47:40.948Z,12.80
2022-12-08T01:50:14.588Z,11.73
2022-12-08T01:52:50.338Z,12.13
2022-12-08T01:55:27.267Z,11.73
2022-12-08T01:58:01.882Z,12.07
2022-12-08T02:00:30.732Z,11.97
2022-12-08T02:03:04.295Z,13.10
2022-12-08T02:05:40.837Z,12.67
2022-12-08T02:08:12.397Z,13.47
2022-12-08T02:10:43.540Z,12.33
2022-12-08T02:13:17.984Z,12.37
2022-12-08T02:16:03.554Z,12.83
2022-12-08T02:19:08.260Z,13.27
2022-12-08T02:21:50.893Z,13.07
2022-12-08T02:24:33.801Z,13.33
2022-12-08T02:27:33.834Z,14.53
2022-12-08T02:30:18.677Z,13.40
2022-12-08T02:33:35.591Z,12.97
2022-12-08T02:36:17.426Z,11.23
2022-12-08T02:39:01.959Z,12.33
2022-12-08T02:41:42.780Z,13.40
2022-12-08T02:44:21.186Z,13.17
2022-12-08T02:46:59.265Z,13.20
2022-12-08T02:49:31.746Z,12.57
2022-12-08T02:52:29.195Z,13.37
2022-12-08T02:55:02.921Z,13.13
2022-12-08T02:57:46.559Z,13.80
2022-12-08T03:00:19.697Z,12.87
2022-12-08T03:03:09.605Z,12.33
2022-12-08T03:06:06.699Z,13.30
2022-12-08T03:08:47.763Z,13.27
2022-12-08T03:11:24.130Z,13.10
2022-12-08T03:13:55.822Z,13.50
2022-12-08T03:16:29.406Z,13.47
2022-12-08T03:19:10.057Z,14.10
2022-12-08T03:21:41.055Z,14.23
2022-12-08T03:24:12.326Z,13.00
2022-12-08T03:26:48.172Z,12.97
2022-12-08T03:29:17.373Z,13.77
2022-12-08T03:31:55.742Z,12.97
2022-12-08T03:34:28.897Z,11.97
2022-12-08T03:36:57.692Z,12.13
2022-12-08T03:39:27.450Z,11.77
2022-12-08T03:41:56.200Z,12.53
2022-12-08T03:44:25.006Z,12.47
2022-12-08T03:46:53.774Z,12.10
2022-12-08T03:49:22.200Z,12.57
2022-12-08T03:51:51.294Z,12.23
2022-12-08T03:54:19.862Z,12.47
2022-12-08T03:56:49.722Z,11.47
2022-12-08T03:59:18.165Z,12.03
2022-12-08T04:01:46.801Z,11.67
2022-12-08T04:04:15.574Z,10.87
2022-12-08T04:06:44.390Z,10.37
2022-12-08T04:09:13.028Z,10.33
2022-12-08T04:11:41.633Z,11.37
2022-12-08T04:14:11.859Z,9.67
2022-12-08T04:16:40.602Z,11.47
2022-12-08T04:19:09.837Z,10.67
2022-12-08T04:21:38.592Z,12.07
2022-12-08T04:24:08.115Z,11.47
2022-12-08T04:26:36.536Z,11.90
2022-12-08T04:29:05.352Z,10.93
2022-12-08T04:31:35.551Z,11.23
2022-12-08T04:34:04.401Z,10.47
2022-12-08T04:36:33.238Z,10.20
2022-12-08T04:39:02.264Z,10.27
2022-12-08T04:41:31.042Z,10.03
2022-12-08T04:43:59.558Z,10.87
2022-12-08T04:46:28.321Z,10.20
2022-12-08T04:48:58.237Z,9.43
2022-12-08T04:51:27.370Z,10.10
2022-12-08T04:53:56.235Z,11.70
2022-12-08T04:56:24.978Z,13.07
2022-12-08T04:58:53.745Z,12.07
2022-12-08T05:01:22.258Z,12.73
2022-12-08T05:03:50.958Z,13.37
2022-12-08T05:06:20.762Z,10.90
2022-12-08T05:08:49.666Z,12.70
2022-12-08T05:11:18.432Z,12.90
2022-12-08T05:13:47.393Z,13.53
2022-12-08T05:16:17.487Z,14.10
2022-12-08T05:18:46.100Z,13.47
2022-12-08T05:21:15.747Z,14.77
2022-12-08T05:23:45.643Z,14.67
2022-12-08T05:26:14.226Z,14.27
2022-12-08T05:28:43.919Z,13.83
2022-12-08T05:31:13.479Z,14.33
2022-12-08T05:33:42.834Z,14.13
2022-12-08T05:36:14.081Z,14.80
2022-12-08T05:38:42.957Z,15.37
2022-12-08T05:41:16.930Z,13.87
2022-12-08T05:43:45.951Z,14.90
2022-12-08T05:46:16.152Z,13.67
2022-12-08T05:48:45.012Z,12.00
2022-12-08T05:51:21.252Z,12.00
2022-12-08T05:53:51.414Z,11.60
2022-12-08T05:56:24.441Z,11.93
2022-12-08T05:58:53.064Z,12.57
2022-12-08T06:01:24.464Z,13.43
2022-12-08T06:03:53.370Z,15.43
2022-12-08T06:06:24.509Z,17.53
2022-12-08T06:08:53.349Z,19.90
2022-12-08T06:11:28.475Z,20.10
2022-12-08T06:13:57.913Z,22.07
2022-12-08T06:16:28.142Z,23.23
2022-12-08T06:18:57.889Z,25.13
2022-12-08T06:21:26.562Z,25.80
2022-12-08T06:23:57.160Z,23.10
2022-12-08T06:26:27.868Z,22.47
2022-12-08T06:28:56.967Z,21.30
2022-12-08T06:31:27.336Z,20.10
2022-12-08T06:33:56.618Z,20.73
2022-12-08T06:36:27.841Z,21.50
2022-12-08T06:38:56.788Z,19.10
2022-12-08T06:41:28.097Z,19.80
2022-12-08T06:43:58.215Z,21.47
2022-12-08T06:46:26.681Z,19.53
2022-12-08T06:48:55.098Z,20.97
2022-12-08T06:51:23.897Z,22.07
2022-12-08T06:53:52.536Z,22.07
2022-12-08T06:56:23.914Z,23.77
2022-12-08T06:58:53.597Z,25.10
2022-12-08T07:01:22.334Z,24.57
2022-12-08T07:03:50.714Z,24.10
2022-12-08T07:06:22.846Z,25.23
2022-12-08T07:08:51.478Z,38.90
2022-12-08T07:11:22.201Z,26.70
2022-12-08T07:13:52.805Z,26.27
2022-12-08T07:16:21.523Z,27.80
2022-12-08T07:18:50.263Z,30.77
2022-12-08T07:21:19.251Z,29.73
2022-12-08T07:23:54.424Z,31.63
2022-12-08T07:26:26.905Z,31.00
2022-12-08T07:28:56.871Z,23.17
2022-12-08T07:31:28.526Z,26.43
2022-12-08T07:33:58.120Z,21.20
2022-12-08T07:36:27.316Z,21.67
2022-12-08T07:38:56.818Z,19.27
2022-12-08T07:41:26.892Z,21.97
2022-12-08T07:43:58.260Z,20.00
2022-12-08T07:46:27.797Z,20.20
2022-12-08T07:48:57.133Z,20.97
2022-12-08T07:51:26.212Z,22.70
2022-12-08T07:53:55.486Z,21.23
2022-12-08T07:56:24.595Z,21.37
2022-12-08T07:58:53.538Z,19.80
2022-12-08T08:01:28.397Z,18.07
2022-12-08T08:04:01.444Z,17.67
2022-12-08T08:06:30.267Z,19.17
2022-12-08T08:08:59.049Z,17.07
2022-12-08T08:11:27.749Z,18.77
2022-12-08T08:13:57.535Z,18.90
2022-12-08T08:16:28.471Z,19.70
2022-12-08T08:18:58.533Z,17.50
2022-12-08T08:24:15.833Z,16.37
2022-12-08T08:26:44.529Z,22.00
2022-12-08T08:29:13.078Z,30.53
2022-12-08T08:31:43.034Z,18.07
2022-12-08T08:34:11.826Z,16.73
2022-12-08T08:36:41.286Z,16.77
2022-12-08T08:39:09.878Z,16.77
2022-12-08T08:41:38.357Z,17.10
2022-12-08T08:44:07.087Z,19.67
2022-12-08T08:46:35.949Z,17.37
2022-12-08T08:49:05.945Z,17.67
2022-12-08T08:51:34.896Z,17.53
2022-12-08T08:54:03.408Z,18.67
2022-12-08T08:56:32.292Z,19.17
2022-12-08T08:59:03.068Z,16.80
2022-12-08T09:01:32.072Z,17.97
2022-12-08T09:04:01.435Z,17.90
2022-12-08T09:06:31.749Z,19.63
2022-12-08T09:09:00.597Z,16.53
2022-12-08T09:11:29.205Z,17.03
2022-12-08T09:13:57.855Z,16.90
2022-12-08T09:16:27.050Z,16.50
2022-12-08T09:18:55.823Z,17.87
2022-12-08T09:21:27.696Z,16.60
2022-12-08T09:23:59.612Z,17.23
2022-12-08T09:26:29.802Z,16.83
2022-12-08T09:28:58.981Z,16.57
2022-12-08T09:31:27.910Z,15.87
2022-12-08T09:33:56.668Z,17.80
2022-12-08T09:36:25.181Z,16.57
2022-12-08T09:38:54.792Z,15.23
2022-12-08T09:41:37.961Z,15.63
2022-12-08T09:44:42.102Z,15.60
2022-12-08T09:47:22.401Z,14.80
2022-12-08T09:50:00.439Z,13.87
2022-12-08T09:52:36.429Z,15.37
2022-12-08T09:55:13.579Z,14.57
2022-12-08T09:57:43.597Z,17.47
2022-12-08T10:00:15.482Z,13.77
2022-12-08T10:02:48.310Z,14.67
2022-12-08T10:05:17.060Z,16.00
2022-12-08T10:07:50.374Z,15.50
2022-12-08T10:10:36.024Z,14.47
2022-12-08T10:13:18.179Z,16.57
2022-12-08T10:15:57.515Z,15.33
2022-12-08T10:18:30.812Z,14.83
2022-12-08T10:21:18.176Z,16.67
2022-12-08T10:23:51.345Z,17.20
2022-12-08T10:26:23.166Z,16.90
2022-12-08T10:28:53.271Z,15.87
2022-12-08T10:31:26.290Z,16.97
2022-12-08T10:34:00.809Z,16.27
2022-12-08T10:36:50.359Z,15.03
2022-12-08T10:39:38.661Z,14.50
2022-12-08T10:42:22.317Z,15.43
2022-12-08T10:45:16.082Z,15.00
2022-12-08T10:47:56.802Z,16.63
2022-12-08T10:50:31.831Z,15.07
2022-12-08T10:53:04.037Z,15.90
2022-12-08T10:55:44.227Z,16.83
2022-12-08T10:58:33.844Z,17.93
2022-12-08T11:01:10.877Z,17.83
2022-12-08T11:03:48.716Z,21.63
2022-12-08T11:06:22.528Z,16.47
2022-12-08T11:08:55.244Z,21.27
2022-12-08T11:11:39.448Z,22.00
2022-12-08T11:14:09.804Z,24.27
2022-12-08T11:16:44.316Z,21.07
2022-12-08T11:19:19.601Z,20.47
2022-12-08T11:21:48.722Z,20.70
2022-12-08T11:24:25.312Z,22.17
2022-12-08T11:27:01.371Z,19.17
2022-12-08T11:29:32.430Z,19.63
2022-12-08T11:32:08.969Z,20.13
2022-12-08T11:34:47.176Z,19.17
2022-12-08T11:37:23.010Z,21.23
2022-12-08T11:39:57.520Z,18.80
2022-12-08T11:42:43.639Z,19.40
2022-12-08T11:45:21.600Z,20.03
2022-12-08T11:48:05.142Z,19.87
2022-12-08T11:50:44.844Z,20.97
2022-12-08T11:53:26.041Z,19.00
2022-12-08T11:56:01.831Z,19.33
2022-12-08T11:58:40.708Z,21.93
2022-12-08T12:01:20.528Z,22.43
2022-12-08T12:04:10.112Z,22.00
2022-12-08T12:07:26.160Z,20.93
2022-12-08T12:10:14.748Z,22.10
2022-12-08T12:13:08.665Z,21.43
2022-12-08T12:16:33.844Z,23.13
2022-12-08T12:19:10.545Z,25.40
2022-12-08T12:21:45.475Z,22.37
2022-12-08T12:24:26.101Z,20.87
2022-12-08T12:27:01.231Z,21.57
2022-12-08T12:29:33.520Z,23.70
2022-12-08T12:32:07.907Z,21.07
2022-12-08T12:34:48.360Z,19.10
2022-12-08T12:37:21.252Z,17.60
2022-12-08T12:39:59.832Z,15.63
2022-12-08T12:42:42.604Z,14.87
2022-12-08T12:45:32.051Z,16.97
2022-12-08T12:48:25.204Z,17.53
2022-12-08T12:50:56.843Z,17.00
2022-12-08T12:53:52.027Z,17.93
2022-12-08T12:56:57.514Z,16.57
2022-12-08T12:59:53.267Z,19.60
2022-12-08T13:02:30.966Z,21.43
2022-12-08T13:05:11.321Z,21.67
2022-12-08T13:07:51.871Z,20.87
2022-12-08T13:10:25.005Z,21.07
2022-12-08T13:13:18.569Z,20.97
2022-12-08T13:15:52.965Z,19.43
2022-12-08T13:18:27.188Z,18.77
2022-12-08T13:21:05.360Z,19.00
2022-12-08T13:23:51.074Z,19.40
2022-12-08T13:26:23.120Z,20.90
2022-12-08T13:29:18.342Z,21.60
2022-12-08T13:31:51.323Z,20.40
2022-12-08T13:34:37.808Z,22.63
2022-12-08T13:37:25.069Z,22.70
2022-12-08T13:40:01.457Z,22.70
2022-12-08T13:42:43.263Z,21.73
2022-12-08T13:45:48.661Z,20.27
2022-12-08T13:48:33.192Z,21.07
2022-12-08T13:53:22.533Z,21.80
2022-12-08T13:57:07.110Z,25.07
2022-12-08T13:59:37.236Z,23.67
2022-12-08T14:02:19.263Z,22.20
2022-12-08T14:07:39.973Z,25.93
2022-12-08T14:10:15.709Z,24.67
2022-12-08T14:12:53.157Z,23.57
2022-12-08T14:15:22.179Z,27.87
2022-12-08T14:17:54.749Z,24.87
2022-12-08T14:20:27.998Z,23.27
2022-12-08T14:22:58.975Z,24.83
2022-12-08T14:25:29.949Z,22.90
2022-12-08T14:28:05.416Z,25.83
2022-12-08T14:30:36.297Z,25.77
2022-12-08T14:33:06.409Z,28.70
2022-12-08T14:35:37.758Z,26.47
2022-12-08T14:38:14.297Z,27.00
2022-12-08T14:40:45.537Z,26.00
2022-12-08T14:43:21.424Z,27.93
2022-12-08T14:45:53.547Z,28.27
2022-12-08T14:48:25.417Z,28.17
2022-12-08T14:51:02.957Z,27.40
2022-12-08T14:53:39.876Z,26.43
2022-12-08T14:56:21.439Z,27.00
2022-12-08T14:59:04.646Z,28.63
2022-12-08T15:01:34.646Z,26.90
2022-12-08T15:04:10.021Z,26.83
2022-12-08T15:06:38.692Z,25.73
2022-12-08T15:09:28.977Z,27.07
2022-12-08T15:12:03.480Z,27.20
2022-12-08T15:14:37.135Z,26.20
2022-12-08T15:17:20.785Z,26.00
2022-12-08T15:19:58.395Z,24.37
2022-12-08T15:22:27.781Z,23.80
2022-12-08T15:24:57.459Z,28.40
2022-12-08T15:27:27.525Z,23.47
2022-12-08T15:29:57.194Z,25.03
2022-12-08T15:32:25.865Z,24.87
2022-12-08T15:34:54.196Z,28.10
2022-12-08T15:37:24.841Z,26.07
2022-12-08T15:39:54.038Z,31.57
2022-12-08T15:42:22.373Z,32.30
2022-12-08T15:44:51.071Z,28.27
2022-12-08T15:47:22.846Z,26.70
2022-12-08T15:49:53.161Z,24.00
2022-12-08T15:52:25.942Z,27.33
2022-12-08T15:54:54.924Z,27.83
2022-12-08T15:57:53.557Z,26.83
2022-12-08T16:04:13.758Z,27.67
2022-12-08T16:09:20.694Z,27.97
2022-12-08T16:12:09.409Z,27.47
2022-12-08T16:17:29.212Z,30.10
2022-12-08T16:19:59.724Z,30.97
2022-12-08T16:25:20.955Z,32.10
2022-12-08T16:28:36.932Z,33.13
2022-12-08T16:30:40.357Z,35.30
2022-12-08T16:33:09.417Z,33.20
2022-12-08T16:35:39.273Z,29.73
2022-12-08T16:38:08.171Z,30.40
2022-12-08T16:40:57.654Z,31.10
2022-12-08T16:43:25.299Z,29.73
2022-12-08T16:45:53.813Z,31.87
2022-12-08T16:48:22.739Z,34.40
2022-12-08T16:50:53.915Z,35.37
2022-12-08T16:53:23.108Z,34.47
2022-12-08T16:55:52.174Z,34.63
2022-12-08T16:58:20.914Z,33.23
2022-12-08T17:00:49.352Z,31.37
2022-12-08T17:03:18.553Z,30.33
2022-12-08T17:05:47.164Z,29.07
2022-12-08T17:08:16.997Z,27.60
2022-12-08T17:11:05.676Z,29.43
2022-12-08T17:13:34.313Z,29.07
2022-12-08T17:16:03.489Z,30.13
2022-12-08T17:18:31.841Z,30.57
2022-12-08T17:21:00.117Z,27.03
2022-12-08T17:23:29.846Z,27.10
2022-12-08T17:26:02.248Z,26.27
2022-12-08T17:28:58.277Z,26.87
2022-12-08T17:31:22.231Z,26.63
2022-12-08T17:33:52.321Z,26.30
2022-12-08T17:36:21.981Z,27.67
2022-12-08T17:38:51.677Z,25.80
2022-12-08T17:41:19.992Z,26.60
2022-12-08T17:43:48.674Z,26.73
2022-12-08T17:46:19.097Z,26.73
2022-12-08T17:48:48.264Z,31.97
2022-12-08T17:51:17.166Z,31.30
2022-12-08T17:53:46.616Z,32.00
2022-12-08T17:56:20.041Z,28.40
2022-12-08T17:58:54.218Z,32.27
2022-12-08T18:01:24.319Z,28.63
2022-12-08T18:03:53.233Z,28.27
2022-12-08T18:06:25.623Z,28.57
2022-12-08T18:08:55.629Z,28.77
2022-12-08T18:11:25.540Z,28.33
2022-12-08T18:13:55.529Z,27.80
2022-12-08T18:16:27.995Z,26.20
2022-12-08T18:18:56.357Z,25.80
2022-12-08T18:21:24.892Z,25.30
2022-12-08T18:23:53.359Z,25.47
2022-12-08T18:26:22.039Z,24.93
2022-12-08T18:28:51.720Z,24.17
2022-12-08T18:31:23.334Z,25.90
2022-12-08T18:33:53.626Z,25.63
2022-12-08T18:36:26.012Z,24.00
2022-12-08T18:38:55.024Z,25.13
2022-12-08T18:41:26.791Z,26.67
2022-12-08T18:43:58.099Z,22.00
2022-12-08T18:46:27.137Z,22.60
2022-12-08T18:48:55.575Z,22.07
2022-12-08T18:51:25.520Z,21.40
2022-12-08T18:53:54.545Z,22.83
2022-12-08T18:56:26.759Z,23.10
2022-12-08T18:59:02.929Z,21.20
2022-12-08T19:01:31.942Z,21.10
2022-12-08T19:06:48.943Z,19.67
2022-12-08T19:09:17.885Z,20.20
2022-12-08T19:11:46.252Z,20.80
2022-12-08T19:14:16.134Z,20.53
2022-12-08T19:16:44.541Z,22.00
2022-12-08T19:19:12.984Z,21.20
2022-12-08T19:21:46.286Z,20.60
2022-12-08T19:24:15.474Z,21.40
2022-12-08T19:26:44.634Z,20.33
2022-12-08T19:29:15.009Z,23.00
2022-12-08T19:31:44.020Z,23.03
2022-12-08T19:34:15.147Z,22.03
2022-12-08T19:36:44.163Z,22.70
2022-12-08T19:39:36.330Z,21.90
2022-12-08T19:42:23.213Z,22.07
2022-12-08T19:44:55.877Z,20.93
2022-12-08T19:47:26.434Z,21.27
2022-12-08T19:50:16.264Z,21.13
2022-12-08T19:52:45.781Z,20.27
2022-12-08T19:55:14.442Z,21.10
2022-12-08T19:57:43.250Z,20.03
2022-12-08T20:00:14.386Z,21.40
2022-12-08T20:02:43.199Z,20.10
2022-12-08T20:05:13.327Z,19.47
2022-12-08T20:07:43.010Z,19.53
2022-12-08T20:10:18.774Z,18.50
2022-12-08T20:12:47.495Z,18.70
2022-12-08T20:15:17.717Z,19.53
2022-12-08T20:17:46.405Z,17.80
2022-12-08T20:20:15.368Z,20.83
2022-12-08T20:22:45.323Z,18.73
2022-12-08T20:25:14.426Z,19.00
2022-12-08T20:27:43.667Z,17.47
2022-12-08T20:30:16.962Z,16.67
2022-12-08T20:32:47.227Z,15.90
2022-12-08T20:35:16.995Z,16.33
2022-12-08T20:37:45.721Z,15.73
2022-12-08T20:40:14.481Z,14.67
2022-12-08T20:42:43.211Z,16.37
2022-12-08T20:45:11.923Z,15.77
2022-12-08T20:47:40.772Z,16.90
2022-12-08T20:50:12.009Z,17.93
2022-12-08T20:52:41.202Z,18.43
2022-12-08T20:55:11.158Z,17.67
2022-12-08T20:57:39.900Z,16.63
2022-12-08T21:00:10.566Z,19.03
2022-12-08T21:02:45.061Z,19.70
2022-12-08T21:05:17.781Z,20.03
2022-12-08T21:07:46.848Z,20.07
2022-12-08T21:10:15.553Z,19.80
2022-12-08T21:12:44.340Z,19.37
2022-12-08T21:15:13.673Z,20.40
2022-12-08T21:17:42.623Z,19.80
2022-12-08T21:20:12.090Z,18.80
2022-12-08T21:22:42.301Z,18.30
2022-12-08T21:25:11.362Z,20.63
2022-12-08T21:27:40.724Z,21.47
2022-12-08T21:30:12.303Z,20.93
2022-12-08T21:32:41.349Z,21.53
2022-12-08T21:35:11.115Z,24.33
2022-12-08T21:37:41.355Z,23.97
2022-12-08T21:40:11.355Z,24.27
2022-12-08T21:42:46.229Z,25.97
2022-12-08T21:45:18.523Z,25.27
2022-12-08T21:47:48.220Z,25.50
2022-12-08T21:50:18.118Z,25.33
2022-12-08T21:52:50.378Z,25.40
2022-12-08T21:55:20.383Z,24.03
2022-12-08T21:57:49.250Z,24.83
2022-12-08T22:00:19.704Z,25.90
2022-12-08T22:02:49.083Z,23.97
2022-12-08T22:05:18.341Z,24.13
2022-12-08T22:07:48.364Z,24.73
2022-12-08T22:10:17.144Z,23.90
2022-12-08T22:12:45.685Z,23.50
2022-12-08T22:15:14.848Z,22.67
2022-12-08T22:17:44.761Z,22.57
2022-12-08T22:20:16.067Z,22.00
2022-12-08T22:22:46.022Z,22.70
2022-12-08T22:25:16.159Z,22.97
2022-12-08T22:27:44.806Z,23.50
2022-12-08T22:30:13.959Z,22.90
2022-12-08T22:32:43.093Z,22.30
2022-12-08T22:35:12.140Z,24.00
2022-12-08T22:37:41.054Z,22.90
2022-12-08T22:40:12.470Z,24.80
2022-12-08T22:42:43.062Z,23.67
2022-12-08T22:45:12.851Z,23.90
2022-12-08T22:47:41.819Z,23.80
2022-12-08T22:50:11.524Z,24.70
2022-12-08T22:52:40.480Z,23.53
2022-12-08T22:55:10.491Z,22.23
2022-12-08T22:57:39.407Z,23.67
2022-12-08T23:00:13.044Z,25.17
2022-12-08T23:02:42.028Z,24.27
2022-12-08T23:05:12.000Z,21.80
2022-12-08T23:07:41.425Z,22.70
2022-12-08T23:10:11.805Z,23.23
2022-12-08T23:12:40.512Z,22.87
2022-12-08T23:15:11.525Z,23.80
2022-12-08T23:17:40.001Z,23.03
2022-12-08T23:20:10.606Z,22.37
2022-12-08T23:22:39.825Z,22.67
2022-12-08T23:25:09.888Z,21.53
2022-12-08T23:27:39.179Z,21.20
2022-12-08T23:30:11.371Z,21.70
2022-12-08T23:32:40.087Z,21.93
2022-12-08T23:35:09.642Z,19.93
2022-12-08T23:37:38.439Z,22.40
2022-12-08T23:40:09.193Z,21.60
2022-12-08T23:42:38.112Z,21.97
2022-12-08T23:45:10.183Z,20.20
2022-12-08T23:47:38.982Z,22.30
2022-12-08T23:50:09.946Z,23.10
2022-12-08T23:52:39.959Z,22.30
2022-12-08T23:55:11.161Z,20.43
2022-12-08T23:57:40.238Z,20.73
